createdAt,value
2019-03-31T00:01:49.084Z,10.77
2019-03-31T00:04:18.280Z,10.74
2019-03-31T00:06:46.560Z,10.68
2019-03-31T00:09:14.980Z,10.61
2019-03-31T00:11:43.995Z,10.41
2019-03-31T00:14:12.573Z,10.41
2019-03-31T00:16:40.996Z,10.33
2019-03-31T00:19:09.412Z,10.28
2019-03-31T00:21:37.628Z,10.22
2019-03-31T00:24:06.054Z,10.17
2019-03-31T00:26:34.804Z,10.11
2019-03-31T00:29:03.394Z,10.07
2019-03-31T00:31:31.712Z,10.07
2019-03-31T00:34:00.005Z,10.04
2019-03-31T00:36:28.325Z,10.03
2019-03-31T00:38:56.759Z,9.99
2019-03-31T00:41:25.044Z,9.90
2019-03-31T00:43:53.311Z,9.84
2019-03-31T00:46:22.128Z,9.78
2019-03-31T00:48:50.417Z,9.72
2019-03-31T00:51:18.832Z,9.72
2019-03-31T00:53:47.182Z,9.68
2019-03-31T00:56:15.456Z,9.62
2019-03-31T00:58:43.670Z,9.56
2019-03-31T01:01:46.881Z,9.52
2019-03-31T01:04:17.134Z,9.48
2019-03-31T01:06:48.021Z,9.43
2019-03-31T01:09:25.455Z,9.39
2019-03-31T01:11:54.734Z,9.31
2019-03-31T01:14:23.502Z,9.27
2019-03-31T01:16:54.406Z,9.21
2019-03-31T01:19:23.481Z,9.17
2019-03-31T01:21:51.836Z,9.09
2019-03-31T01:24:20.369Z,9.04
2019-03-31T01:26:48.880Z,8.98
2019-03-31T01:29:17.746Z,8.92
2019-03-31T01:31:50.427Z,8.89
2019-03-31T01:34:17.697Z,8.86
2019-03-31T01:36:45.972Z,8.82
2019-03-31T01:39:14.411Z,8.80
2019-03-31T01:41:42.844Z,8.75
2019-03-31T01:44:11.515Z,8.70
2019-03-31T01:46:40.241Z,8.66
2019-03-31T01:49:08.572Z,8.64
2019-03-31T01:51:37.690Z,8.62
2019-03-31T01:54:06.013Z,8.57
2019-03-31T01:56:34.399Z,8.55
2019-03-31T01:59:02.625Z,8.52
2019-03-31T02:01:31.053Z,8.50
2019-03-31T02:03:59.475Z,8.48
2019-03-31T02:06:27.908Z,8.44
2019-03-31T02:08:56.268Z,8.40
2019-03-31T02:11:25.274Z,8.38
2019-03-31T02:13:53.602Z,8.34
2019-03-31T02:16:22.161Z,8.31
2019-03-31T02:18:50.508Z,8.28
2019-03-31T02:21:18.825Z,8.26
2019-03-31T02:23:47.086Z,8.21
2019-03-31T02:26:15.493Z,8.17
2019-03-31T02:28:44.343Z,8.16
2019-03-31T02:31:12.766Z,8.11
2019-03-31T02:33:41.014Z,8.01
2019-03-31T02:36:09.310Z,7.90
2019-03-31T02:38:37.667Z,7.87
2019-03-31T02:41:06.096Z,7.88
2019-03-31T02:43:34.385Z,7.89
2019-03-31T02:46:02.641Z,7.88
2019-03-31T02:48:30.915Z,7.86
2019-03-31T02:50:59.557Z,7.77
2019-03-31T02:53:28.074Z,7.78
2019-03-31T02:55:57.282Z,7.77
2019-03-31T02:58:26.679Z,7.79
2019-03-31T03:00:55.150Z,7.78
2019-03-31T03:03:24.218Z,7.77
2019-03-31T03:05:55.773Z,7.72
2019-03-31T03:08:26.132Z,7.68
2019-03-31T03:10:56.380Z,7.65
2019-03-31T03:13:26.684Z,7.61
2019-03-31T03:16:26.431Z,7.58
2019-03-31T03:18:55.652Z,7.53
2019-03-31T03:21:25.117Z,7.50
2019-03-31T03:23:54.069Z,7.46
2019-03-31T03:26:23.450Z,7.45
2019-03-31T03:28:51.940Z,7.43
2019-03-31T03:31:20.338Z,7.38
2019-03-31T03:33:48.701Z,7.37
2019-03-31T03:36:17.124Z,7.35
2019-03-31T03:38:45.508Z,7.32
2019-03-31T03:41:13.951Z,7.26
2019-03-31T03:43:55.335Z,7.23
2019-03-31T03:46:13.567Z,7.14
2019-03-31T03:48:41.858Z,7.11
2019-03-31T03:51:11.725Z,7.09
2019-03-31T03:53:40.871Z,7.03
2019-03-31T03:56:09.136Z,6.93
2019-03-31T03:58:37.642Z,6.91
2019-03-31T04:01:20.162Z,6.93
2019-03-31T04:03:48.490Z,6.95
2019-03-31T04:06:17.342Z,6.96
2019-03-31T04:08:46.653Z,6.97
2019-03-31T04:11:33.257Z,7.00
2019-03-31T04:14:01.891Z,6.99
2019-03-31T04:16:30.214Z,6.95
2019-03-31T04:18:58.530Z,6.94
2019-03-31T04:21:27.132Z,6.90
2019-03-31T04:23:56.172Z,6.91
2019-03-31T04:26:25.488Z,6.90
2019-03-31T04:28:54.035Z,6.88
2019-03-31T04:31:23.173Z,6.82
2019-03-31T04:33:53.007Z,6.78
2019-03-31T04:36:21.844Z,6.77
2019-03-31T04:38:50.450Z,6.74
2019-03-31T04:41:18.709Z,6.72
2019-03-31T04:43:47.493Z,6.72
2019-03-31T04:46:15.969Z,6.71
2019-03-31T04:48:44.319Z,6.69
2019-03-31T04:51:12.686Z,6.67
2019-03-31T04:53:41.226Z,6.65
2019-03-31T04:56:09.666Z,6.64
2019-03-31T04:58:37.985Z,6.64
2019-03-31T05:01:06.341Z,6.66
2019-03-31T05:03:35.468Z,6.65
2019-03-31T05:06:03.910Z,6.68
2019-03-31T05:08:32.154Z,6.66
2019-03-31T05:11:00.492Z,6.65
2019-03-31T05:13:29.692Z,6.64
2019-03-31T05:15:58.188Z,6.65
2019-03-31T05:18:26.527Z,6.68
2019-03-31T05:20:54.812Z,6.72
2019-03-31T05:23:23.160Z,6.74
2019-03-31T05:25:51.533Z,6.78
2019-03-31T05:28:19.788Z,6.82
2019-03-31T05:30:48.108Z,6.84
2019-03-31T05:33:16.501Z,6.84
2019-03-31T05:35:45.868Z,6.85
2019-03-31T05:38:14.218Z,6.85
2019-03-31T05:40:43.296Z,6.84
2019-03-31T05:43:12.016Z,6.83
2019-03-31T05:45:40.360Z,6.83
2019-03-31T05:48:08.590Z,6.87
2019-03-31T05:50:37.689Z,6.93
2019-03-31T05:53:05.921Z,6.98
2019-03-31T05:55:34.243Z,6.89
2019-03-31T05:58:02.625Z,6.90
2019-03-31T06:00:36.796Z,6.91
2019-03-31T06:03:05.066Z,6.96
2019-03-31T06:05:33.450Z,7.06
2019-03-31T06:08:01.802Z,7.16
2019-03-31T06:10:30.121Z,7.24
2019-03-31T06:12:58.646Z,7.34
2019-03-31T06:18:08.646Z,7.59
2019-03-31T06:20:36.941Z,7.64
2019-03-31T06:23:05.410Z,7.75
2019-03-31T06:25:33.809Z,7.87
2019-03-31T06:28:02.179Z,7.95
2019-03-31T06:30:30.469Z,8.03
2019-03-31T06:32:58.879Z,8.14
2019-03-31T06:35:27.147Z,8.24
2019-03-31T06:37:55.483Z,8.38
2019-03-31T06:40:23.985Z,8.49
2019-03-31T06:42:52.282Z,8.57
2019-03-31T06:45:21.168Z,8.66
2019-03-31T06:47:49.429Z,8.76
2019-03-31T06:50:17.710Z,8.89
2019-03-31T06:52:45.949Z,9.03
2019-03-31T06:55:14.357Z,9.16
2019-03-31T06:57:42.678Z,9.28
2019-03-31T07:00:11.209Z,9.38
2019-03-31T07:02:39.433Z,9.45
2019-03-31T07:05:08.056Z,9.53
2019-03-31T07:07:36.334Z,9.60
2019-03-31T07:10:05.655Z,9.72
2019-03-31T07:12:33.949Z,9.81
2019-03-31T07:15:02.379Z,9.91
2019-03-31T07:17:30.752Z,9.99
2019-03-31T07:19:59.088Z,10.10
2019-03-31T07:22:27.360Z,10.19
2019-03-31T07:24:55.694Z,10.28
2019-03-31T07:27:24.017Z,10.36
2019-03-31T07:29:52.273Z,10.45
2019-03-31T07:32:20.574Z,10.56
2019-03-31T07:34:49.625Z,10.67
2019-03-31T07:37:17.959Z,10.77
2019-03-31T07:39:46.678Z,10.84
2019-03-31T07:42:15.238Z,10.95
2019-03-31T07:44:43.498Z,11.07
2019-03-31T07:47:11.817Z,11.25
2019-03-31T07:49:40.041Z,11.37
2019-03-31T07:52:08.446Z,11.51
2019-03-31T07:54:36.703Z,11.66
2019-03-31T07:57:06.945Z,11.84
2019-03-31T07:59:35.244Z,12.01
2019-03-31T08:02:04.192Z,12.09
2019-03-31T08:04:32.535Z,12.20
2019-03-31T08:07:00.879Z,12.30
2019-03-31T08:09:31.635Z,12.43
2019-03-31T08:12:00.081Z,12.70
2019-03-31T08:14:28.435Z,12.82
2019-03-31T08:16:56.813Z,12.99
2019-03-31T08:19:25.117Z,13.14
2019-03-31T08:21:53.494Z,13.19
2019-03-31T08:24:21.703Z,13.24
2019-03-31T08:26:50.073Z,13.27
2019-03-31T08:29:19.114Z,13.30
2019-03-31T08:31:47.388Z,13.32
2019-03-31T08:34:15.658Z,13.32
2019-03-31T08:36:43.995Z,13.34
2019-03-31T08:39:15.319Z,13.35
2019-03-31T08:41:43.661Z,13.43
2019-03-31T08:44:11.891Z,13.43
2019-03-31T08:46:40.280Z,13.48
2019-03-31T08:49:08.565Z,13.42
2019-03-31T08:51:37.033Z,13.42
2019-03-31T08:54:05.254Z,13.42
2019-03-31T08:56:33.498Z,13.37
2019-03-31T08:59:02.127Z,13.48
2019-03-31T09:01:30.408Z,13.65
2019-03-31T09:03:58.787Z,13.85
2019-03-31T09:06:26.994Z,14.00
2019-03-31T09:08:55.319Z,14.13
2019-03-31T09:11:23.648Z,14.39
2019-03-31T09:13:51.971Z,14.62
2019-03-31T09:16:20.322Z,14.77
2019-03-31T09:18:48.709Z,15.00
2019-03-31T09:21:17.765Z,15.03
2019-03-31T09:23:46.085Z,15.04
2019-03-31T09:26:14.330Z,15.08
2019-03-31T09:28:42.624Z,15.13
2019-03-31T09:31:11.377Z,15.20
2019-03-31T09:33:39.795Z,15.27
2019-03-31T09:36:15.996Z,15.34
2019-03-31T09:38:38.639Z,15.40
2019-03-31T09:41:06.984Z,15.40
2019-03-31T09:43:35.405Z,15.50
2019-03-31T09:46:03.856Z,15.38
2019-03-31T09:48:32.277Z,15.41
2019-03-31T09:51:00.562Z,15.58
2019-03-31T09:53:29.098Z,15.58
2019-03-31T09:55:58.451Z,15.83
2019-03-31T09:58:26.757Z,16.00
2019-03-31T10:00:55.607Z,16.17
2019-03-31T10:03:24.460Z,16.30
2019-03-31T10:05:53.095Z,16.35
2019-03-31T10:08:22.415Z,16.48
2019-03-31T10:10:50.938Z,16.57
2019-03-31T10:13:19.257Z,16.65
2019-03-31T10:15:47.603Z,16.69
2019-03-31T10:18:18.256Z,16.93
2019-03-31T10:20:46.750Z,16.93
2019-03-31T10:23:15.156Z,17.16
2019-03-31T10:25:43.619Z,17.30
2019-03-31T10:28:12.038Z,17.36
2019-03-31T10:30:41.309Z,17.42
2019-03-31T10:33:10.456Z,17.42
2019-03-31T10:35:41.918Z,17.28
2019-03-31T10:38:10.484Z,17.33
2019-03-31T10:40:38.901Z,17.43
2019-03-31T10:43:07.523Z,17.37
2019-03-31T10:45:35.915Z,17.28
2019-03-31T10:48:19.215Z,17.23
2019-03-31T10:50:36.032Z,17.20
2019-03-31T10:53:04.561Z,17.24
2019-03-31T10:55:32.871Z,17.38
2019-03-31T10:58:01.202Z,17.58
2019-03-31T11:00:37.835Z,17.78
2019-03-31T11:03:07.102Z,17.67
2019-03-31T11:05:35.904Z,17.95
2019-03-31T11:08:06.131Z,18.29
2019-03-31T11:10:35.533Z,18.49
2019-03-31T11:13:04.021Z,18.63
2019-03-31T11:15:32.561Z,18.68
2019-03-31T11:18:02.885Z,18.78
2019-03-31T11:20:31.283Z,18.82
2019-03-31T11:23:11.391Z,18.81
2019-03-31T11:25:39.656Z,18.82
2019-03-31T11:28:08.614Z,19.05
2019-03-31T11:30:36.926Z,19.29
2019-03-31T11:33:07.511Z,19.03
2019-03-31T11:35:35.584Z,19.03
2019-03-31T11:38:04.354Z,19.10
2019-03-31T11:40:32.683Z,19.12
2019-03-31T11:43:01.146Z,19.28
2019-03-31T11:45:29.691Z,19.01
2019-03-31T11:47:58.008Z,19.36
2019-03-31T11:50:26.938Z,19.50
2019-03-31T11:52:55.868Z,19.59
2019-03-31T11:55:24.302Z,19.85
2019-03-31T11:57:52.583Z,19.26
2019-03-31T12:00:21.662Z,19.08
2019-03-31T12:02:50.228Z,19.10
2019-03-31T12:05:19.159Z,19.11
2019-03-31T12:07:47.615Z,19.37
2019-03-31T12:10:19.688Z,19.36
2019-03-31T12:12:46.579Z,19.30
2019-03-31T12:15:14.931Z,19.47
2019-03-31T12:17:43.329Z,19.84
2019-03-31T12:20:12.216Z,19.84
2019-03-31T12:22:40.694Z,19.74
2019-03-31T12:25:09.812Z,19.87
2019-03-31T12:27:38.111Z,19.95
2019-03-31T12:30:07.115Z,19.80
2019-03-31T12:32:38.307Z,19.78
2019-03-31T12:35:07.614Z,20.09
2019-03-31T12:37:42.171Z,19.67
2019-03-31T12:40:06.791Z,19.68
2019-03-31T12:42:35.677Z,19.89
2019-03-31T12:45:04.839Z,19.94
2019-03-31T12:47:33.146Z,20.22
2019-03-31T12:50:01.548Z,20.32
2019-03-31T12:52:29.944Z,20.09
2019-03-31T12:54:58.350Z,19.69
2019-03-31T12:57:26.659Z,19.63
2019-03-31T12:59:55.091Z,19.59
2019-03-31T13:02:23.349Z,19.89
2019-03-31T13:04:51.689Z,20.06
2019-03-31T13:07:20.078Z,20.11
2019-03-31T13:09:48.396Z,20.24
2019-03-31T13:12:16.755Z,20.29
2019-03-31T13:14:45.078Z,19.93
2019-03-31T13:17:13.494Z,19.89
2019-03-31T13:19:45.532Z,20.14
2019-03-31T13:22:13.905Z,20.37
2019-03-31T13:24:42.241Z,20.49
2019-03-31T13:27:10.600Z,20.21
2019-03-31T13:29:38.967Z,20.46
2019-03-31T13:32:08.104Z,20.49
2019-03-31T13:34:36.497Z,20.55
2019-03-31T13:37:04.891Z,20.27
2019-03-31T13:39:33.263Z,20.25
2019-03-31T13:42:01.870Z,20.31
2019-03-31T13:44:30.183Z,20.16
2019-03-31T13:46:59.631Z,20.15
2019-03-31T13:49:28.472Z,19.65
2019-03-31T13:51:56.917Z,19.35
2019-03-31T13:54:25.167Z,19.15
2019-03-31T13:56:54.205Z,18.85
2019-03-31T13:59:22.751Z,18.88
2019-03-31T14:01:51.777Z,18.59
2019-03-31T14:04:20.081Z,18.53
2019-03-31T14:06:48.383Z,19.13
2019-03-31T14:09:16.651Z,19.33
2019-03-31T14:11:48.438Z,19.73
2019-03-31T14:14:15.279Z,19.50
2019-03-31T14:16:44.428Z,19.41
2019-03-31T14:19:13.332Z,19.50
2019-03-31T14:21:49.921Z,19.60
2019-03-31T14:24:18.295Z,19.59
2019-03-31T14:26:47.874Z,19.66
2019-03-31T14:29:16.475Z,19.60
2019-03-31T14:31:44.915Z,19.69
2019-03-31T14:34:13.353Z,19.35
2019-03-31T14:36:42.401Z,19.10
2019-03-31T14:39:10.850Z,19.52
2019-03-31T14:41:39.384Z,19.29
2019-03-31T14:44:07.918Z,19.26
2019-03-31T14:46:36.471Z,18.88
2019-03-31T14:49:04.824Z,19.26
2019-03-31T14:51:33.139Z,19.38
2019-03-31T14:54:01.949Z,19.44
2019-03-31T14:56:30.314Z,19.35
2019-03-31T14:58:58.570Z,19.24
2019-03-31T15:01:26.824Z,19.59
2019-03-31T15:03:55.143Z,18.84
2019-03-31T15:06:23.420Z,18.95
2019-03-31T15:08:54.666Z,19.17
2019-03-31T15:11:22.393Z,19.17
2019-03-31T15:13:50.761Z,19.05
2019-03-31T15:16:18.997Z,18.63
2019-03-31T15:18:47.334Z,18.99
2019-03-31T15:21:16.277Z,17.95
2019-03-31T15:23:50.863Z,17.18
2019-03-31T15:26:19.099Z,17.47
2019-03-31T15:28:47.615Z,17.45
2019-03-31T15:31:15.899Z,18.02
2019-03-31T15:33:44.577Z,17.69
2019-03-31T15:36:12.868Z,17.38
2019-03-31T15:38:41.191Z,17.30
2019-03-31T15:41:20.967Z,17.43
2019-03-31T15:43:40.900Z,16.94
2019-03-31T15:46:09.127Z,16.57
2019-03-31T15:48:37.448Z,17.25
2019-03-31T15:51:05.721Z,16.54
2019-03-31T15:53:34.400Z,16.46
2019-03-31T15:56:02.645Z,16.53
2019-03-31T15:58:30.986Z,16.47
2019-03-31T16:01:01.148Z,16.08
2019-03-31T16:03:29.440Z,16.53
2019-03-31T16:05:57.682Z,16.60
2019-03-31T16:08:25.411Z,16.44
2019-03-31T16:10:53.123Z,16.17
2019-03-31T16:13:20.895Z,16.23
2019-03-31T16:15:48.730Z,16.15
2019-03-31T16:18:16.516Z,16.06
2019-03-31T16:20:44.834Z,15.77
2019-03-31T16:23:12.698Z,15.95
2019-03-31T16:25:45.291Z,16.22
2019-03-31T16:28:13.243Z,16.22
2019-03-31T16:30:41.052Z,16.22
2019-03-31T16:33:09.814Z,16.21
2019-03-31T16:35:37.564Z,16.52
2019-03-31T16:38:05.691Z,16.21
2019-03-31T16:40:33.393Z,16.26
2019-03-31T16:43:01.480Z,16.02
2019-03-31T16:45:29.637Z,15.67
2019-03-31T16:47:57.600Z,16.05
2019-03-31T16:50:25.445Z,15.97
2019-03-31T16:52:53.146Z,16.06
2019-03-31T16:55:20.920Z,16.21
2019-03-31T16:57:48.787Z,16.29
2019-03-31T17:00:16.789Z,15.91
2019-03-31T17:02:44.618Z,16.00
2019-03-31T17:05:21.726Z,15.92
2019-03-31T17:07:42.530Z,16.05
2019-03-31T17:10:11.420Z,16.09
2019-03-31T17:12:39.146Z,15.94
2019-03-31T17:15:07.546Z,15.87
2019-03-31T17:17:35.252Z,15.74
2019-03-31T17:20:04.797Z,15.57
2019-03-31T17:22:33.780Z,15.43
2019-03-31T17:25:01.588Z,15.33
2019-03-31T17:27:29.263Z,15.17
2019-03-31T17:29:57.031Z,15.07
2019-03-31T17:32:24.935Z,14.98
2019-03-31T17:34:52.845Z,14.40
2019-03-31T17:37:20.583Z,14.40
2019-03-31T17:39:48.343Z,14.49
2019-03-31T17:42:16.073Z,14.53
2019-03-31T17:44:43.853Z,14.42
2019-03-31T17:47:11.820Z,14.47
2019-03-31T17:49:39.614Z,14.40
2019-03-31T17:52:07.328Z,14.33
2019-03-31T17:54:35.122Z,14.17
2019-03-31T17:57:02.971Z,14.18
2019-03-31T17:59:31.551Z,14.18
2019-03-31T18:01:59.276Z,14.17
2019-03-31T18:04:27.056Z,14.12
2019-03-31T18:06:54.751Z,14.03
2019-03-31T18:09:23.329Z,14.01
2019-03-31T18:11:51.011Z,13.91
2019-03-31T18:14:18.840Z,13.86
2019-03-31T18:16:47.522Z,13.80
2019-03-31T18:19:15.349Z,13.72
2019-03-31T18:21:43.903Z,13.67
2019-03-31T18:24:11.777Z,13.62
2019-03-31T18:26:39.478Z,13.61
2019-03-31T18:29:07.294Z,13.51
2019-03-31T18:31:34.998Z,13.49
2019-03-31T18:34:03.840Z,13.45
2019-03-31T18:36:36.920Z,13.37
2019-03-31T18:39:01.992Z,13.29
2019-03-31T18:41:29.741Z,13.20
2019-03-31T18:43:57.441Z,13.20
2019-03-31T18:46:25.241Z,13.17
2019-03-31T18:48:52.993Z,13.07
2019-03-31T18:51:20.995Z,13.02
2019-03-31T18:54:14.070Z,12.93
2019-03-31T18:56:49.798Z,12.93
2019-03-31T18:59:42.824Z,12.87
2019-03-31T19:02:29.643Z,12.74
2019-03-31T19:05:14.910Z,12.71
2019-03-31T19:08:02.117Z,12.71
2019-03-31T19:11:04.353Z,12.65
2019-03-31T19:13:57.222Z,12.61
2019-03-31T19:16:53.525Z,12.62
2019-03-31T19:19:40.173Z,12.54
2019-03-31T19:22:30.764Z,12.40
2019-03-31T19:25:15.331Z,12.34
2019-03-31T19:28:08.546Z,12.34
2019-03-31T19:31:01.529Z,12.18
2019-03-31T19:33:54.351Z,12.18
2019-03-31T19:36:53.661Z,12.13
2019-03-31T19:39:44.350Z,12.54
2019-03-31T19:42:32.451Z,12.47
2019-03-31T19:45:25.898Z,12.47
2019-03-31T19:48:09.658Z,12.12
2019-03-31T19:51:12.106Z,12.05
2019-03-31T19:53:50.099Z,12.05
2019-03-31T19:56:24.081Z,11.90
2019-03-31T19:59:17.656Z,11.71
2019-03-31T20:01:51.662Z,11.71
2019-03-31T20:04:40.336Z,11.70
2019-03-31T20:07:27.741Z,11.56
2019-03-31T20:10:15.017Z,11.44
2019-03-31T20:13:05.752Z,11.44
2019-03-31T20:16:02.510Z,11.41
2019-03-31T20:18:58.848Z,11.37
2019-03-31T20:21:40.959Z,11.32
2019-03-31T20:24:28.951Z,11.28
2019-03-31T20:27:14.707Z,11.11
2019-03-31T20:30:10.813Z,11.10
2019-03-31T20:33:09.986Z,11.06
2019-03-31T20:35:45.548Z,11.00
2019-03-31T20:38:23.586Z,10.95
2019-03-31T20:41:28.599Z,10.90
2019-03-31T20:43:56.621Z,10.86
2019-03-31T20:46:24.623Z,10.83
2019-03-31T20:48:52.703Z,10.81
2019-03-31T20:51:20.682Z,10.78
2019-03-31T20:53:48.592Z,10.75
2019-03-31T20:56:16.813Z,10.73
2019-03-31T20:58:45.002Z,10.70
2019-03-31T21:01:14.293Z,10.65
2019-03-31T21:03:42.088Z,10.65
2019-03-31T21:06:09.906Z,10.60
2019-03-31T21:08:37.931Z,10.55
2019-03-31T21:11:05.858Z,10.50
2019-03-31T21:13:33.818Z,10.45
2019-03-31T21:16:03.482Z,10.42
2019-03-31T21:18:31.266Z,10.35
2019-03-31T21:20:59.004Z,10.27
2019-03-31T21:23:26.984Z,10.22
2019-03-31T21:25:54.791Z,10.16
2019-03-31T21:28:22.675Z,10.09
2019-03-31T21:30:50.550Z,10.08
2019-03-31T21:33:18.402Z,10.04
2019-03-31T21:35:48.582Z,9.97
2019-03-31T21:38:15.909Z,9.98
2019-03-31T21:40:44.365Z,9.92
2019-03-31T21:43:12.533Z,9.89
2019-03-31T21:45:40.948Z,9.87
2019-03-31T21:48:09.039Z,9.79
2019-03-31T21:50:38.697Z,9.75
2019-03-31T21:53:06.701Z,9.73
2019-03-31T21:55:34.759Z,9.63
2019-03-31T21:58:02.527Z,9.59
2019-03-31T22:00:48.765Z,9.48
2019-03-31T22:03:16.882Z,9.44
2019-03-31T22:05:44.612Z,9.38
2019-03-31T22:08:12.362Z,9.33
2019-03-31T22:10:40.088Z,9.30
2019-03-31T22:13:09.511Z,9.28
2019-03-31T22:15:37.900Z,9.25
2019-03-31T22:18:05.661Z,9.21
2019-03-31T22:20:34.003Z,9.17
2019-03-31T22:23:02.042Z,9.12
2019-03-31T22:25:30.523Z,9.07
2019-03-31T22:27:58.625Z,9.03
2019-03-31T22:30:26.385Z,9.00
2019-03-31T22:32:54.152Z,8.96
2019-03-31T22:35:22.354Z,8.92
2019-03-31T22:37:50.023Z,8.89
2019-03-31T22:40:17.810Z,8.83
2019-03-31T22:42:45.726Z,8.80
2019-03-31T22:45:13.670Z,8.76
2019-03-31T22:47:41.500Z,8.71
2019-03-31T22:50:09.470Z,8.68
2019-03-31T22:52:37.159Z,8.63
2019-03-31T22:55:05.404Z,8.59
2019-03-31T22:57:33.321Z,8.56
2019-03-31T23:00:01.082Z,8.52
2019-03-31T23:02:28.910Z,8.47
2019-03-31T23:04:56.694Z,8.42
2019-03-31T23:07:24.532Z,8.39
2019-03-31T23:09:53.703Z,8.34
2019-03-31T23:12:21.409Z,8.31
2019-03-31T23:14:49.650Z,8.28
2019-03-31T23:17:17.479Z,8.22
2019-03-31T23:19:45.282Z,8.18
2019-03-31T23:22:13.037Z,8.14
2019-03-31T23:24:40.807Z,8.10
2019-03-31T23:27:08.488Z,8.06
2019-03-31T23:29:36.314Z,8.00
2019-03-31T23:32:04.502Z,7.97
2019-03-31T23:34:32.238Z,7.93
2019-03-31T23:36:59.959Z,7.90
2019-03-31T23:39:27.688Z,7.84
2019-03-31T23:41:55.409Z,7.78
2019-03-31T23:44:23.206Z,7.75
2019-03-31T23:46:51.001Z,7.69
2019-03-31T23:49:18.754Z,7.66
2019-03-31T23:51:46.603Z,7.62
2019-03-31T23:54:14.355Z,7.58
2019-03-31T23:56:42.074Z,7.55
2019-03-31T23:59:09.868Z,7.52
